Time;durP1;ratioP1;P1;durP2;ratioP2;P2;SDS_P1;SDS_P2;PMS_P1;PMS_P2;Temp;Humidity;BMP_temperature;BMP_pressure;BME280_temperature;BME280_humidity;BME280_pressure;Samples;Min_cycle;Max_cycle;Signal;HPM_P1;HPM_P2
2021/06/02 04:01:40;;;;;;;3.23;2.93;;;13.60;96.30;;;;;;5523918;23;20514;-78
2021/06/02 04:04:26;;;;;;;3.07;2.87;;;13.60;96.30;;;;;;4932507;29;20431;-78
2021/06/02 04:07:13;;;;;;;3.83;3.30;;;13.30;96.30;;;;;;4935310;29;21085;-78
2021/06/02 04:10:12;;;;;;;4.10;3.70;;;13.60;96.30;;;;;;4935542;29;20552;-78
2021/06/02 04:12:50;;;;;;;3.23;3.00;;;14.30;96.30;;;;;;4916799;29;20415;-79
2021/06/02 04:15:16;;;;;;;4.33;3.03;;;14.80;95.90;;;;;;4916214;29;20773;-76
2021/06/02 04:17:48;;;;;;;5.13;2.80;;;15.10;95.30;;;;;;4916268;29;20471;-76
2021/06/02 04:20:15;;;;;;;3.20;2.90;;;15.60;93.70;;;;;;4916489;29;20424;-77
2021/06/02 04:22:44;;;;;;;3.73;2.40;;;16.10;91.30;;;;;;4916626;29;20438;-77
2021/06/02 04:25:11;;;;;;;4.90;2.50;;;16.20;90.60;;;;;;4916673;29;20774;-76
2021/06/02 04:27:38;;;;;;;3.60;2.57;;;16.40;90.70;;;;;;4915987;29;20424;-76
2021/06/02 04:30:06;;;;;;;3.50;2.20;;;16.40;91.40;;;;;;4915603;29;20931;-76
2021/06/02 04:32:43;;;;;;;4.23;2.43;;;16.10;90.50;;;;;;4916483;29;20436;-77
2021/06/02 04:35:15;;;;;;;3.70;2.90;;;15.80;91.20;;;;;;4916488;29;20408;-77
2021/06/02 04:37:41;;;;;;;2.30;2.10;;;15.70;91.50;;;;;;4915909;29;20948;-76
2021/06/02 04:40:08;;;;;;;3.43;3.07;;;15.70;91.60;;;;;;4916158;29;20436;-76
2021/06/02 04:42:35;;;;;;;3.73;2.33;;;15.40;93.30;;;;;;4916460;29;20656;-77
2021/06/02 04:45:03;;;;;;;5.87;2.67;;;15.30;94.50;;;;;;4916350;29;20496;-77
2021/06/02 04:47:31;;;;;;;5.90;3.13;;;15.00;96.20;;;;;;4914402;29;20845;-76
2021/06/02 04:50:22;;;;;;;3.50;2.50;;;14.80;96.30;;;;;;4916228;29;20424;-76
2021/06/02 04:53:31;;;;;;;7.80;2.53;;;15.80;94.60;;;;;;4916339;29;20861;-76
2021/06/02 04:56:28;;;;;;;3.00;2.30;;;18.00;88.90;;;;;;4914384;29;20424;-77
2021/06/02 04:59:22;;;;;;;2.77;2.57;;;19.70;82.10;;;;;;4915697;29;20795;-77
2021/06/02 05:02:13;;;;;;;6.03;2.93;;;20.70;78.70;;;;;;4915383;29;20464;-77
2021/06/02 05:04:57;;;;;;;3.30;2.40;;;21.30;75.60;;;;;;4914518;29;20905;-78
2021/06/02 05:07:36;;;;;;;6.50;2.67;;;20.20;77.60;;;;;;4913607;29;20422;-77
2021/06/02 05:10:37;;;;;;;3.43;3.07;;;19.20;81.20;;;;;;4914084;29;20428;-78
2021/06/02 05:13:40;;;;;;;4.37;3.17;;;18.50;82.50;;;;;;4915680;29;20507;-76
2021/06/02 05:16:46;;;;;;;7.13;2.63;;;17.90;85.10;;;;;;4897614;29;20425;-77
2021/06/02 05:19:57;;;;;;;5.97;2.70;;;17.80;86.10;;;;;;4897915;29;20493;-82
2021/06/02 05:22:42;;;;;;;4.40;2.50;;;17.20;88.20;;;;;;4897217;29;20433;-81
2021/06/02 05:25:21;;;;;;;3.10;2.70;;;16.60;90.40;;;;;;4897783;29;20787;-77
2021/06/02 05:28:31;;;;;;;5.00;2.17;;;17.50;88.90;;;;;;4896651;29;20417;-77
2021/06/02 05:31:13;;;;;;;5.23;2.90;;;19.80;83.30;;;;;;4897391;29;20942;-82
2021/06/02 05:34:00;;;;;;;6.87;3.00;;;21.00;77.10;;;;;;4897213;29;20448;-80
2021/06/02 05:36:34;;;;;;;5.70;2.97;;;21.60;76.50;;;;;;4897092;29;20456;-79
2021/06/02 05:39:42;;;;;;;3.00;2.80;;;22.60;73.90;;;;;;4896856;29;20906;-77
2021/06/02 05:42:39;;;;;;;7.07;3.07;;;23.00;74.00;;;;;;4885344;29;20449;-78
2021/06/02 05:45:16;;;;;;;4.57;2.93;;;24.00;70.60;;;;;;4897012;29;20405;-77
2021/06/02 05:48:05;;;;;;;6.13;2.83;;;24.60;69.60;;;;;;4895147;29;20436;-77
2021/06/02 05:50:55;;;;;;;4.50;2.60;;;24.10;70.30;;;;;;4895601;29;20456;-77
2021/06/02 05:53:56;;;;;;;2.90;2.57;;;24.40;68.90;;;;;;4896088;29;20515;-77
2021/06/02 05:56:53;;;;;;;7.43;2.60;;;25.00;68.10;;;;;;4903462;29;20962;-78
2021/06/02 05:59:27;;;;;;;6.03;2.70;;;25.20;68.20;;;;;;4915748;29;20408;-78
2021/06/02 06:01:57;;;;;;;2.60;2.10;;;25.60;67.40;;;;;;4914921;29;20936;-77
2021/06/02 06:04:37;;;;;;;2.73;2.47;;;24.70;69.00;;;;;;4915475;29;20516;-78
2021/06/02 06:07:33;;;;;;;3.00;2.60;;;24.10;68.80;;;;;;4914924;29;20447;-78
2021/06/02 06:10:17;;;;;;;3.10;2.80;;;23.00;70.40;;;;;;4896774;29;20831;-77
2021/06/02 06:12:46;;;;;;;4.67;2.20;;;23.70;70.30;;;;;;4915305;29;20424;-78
2021/06/02 06:16:05;;;;;;;2.40;1.93;;;23.70;70.70;;;;;;4918781;29;20412;-77
2021/06/02 06:18:30;;;;;;;4.47;2.43;;;22.80;71.40;;;;;;4878203;29;20438;-77
2021/06/02 06:21:08;;;;;;;3.20;2.30;;;22.20;72.90;;;;;;4914732;29;20449;-76
2021/06/02 06:23:51;;;;;;;2.73;2.10;;;22.30;73.70;;;;;;4918171;29;20184;-77
2021/06/02 06:26:44;;;;;;;4.70;2.13;;;22.70;73.20;;;;;;4916343;29;20431;-77
2021/06/02 06:29:31;;;;;;;2.80;2.30;;;23.00;70.80;;;;;;4915978;29;20417;-77
2021/06/02 06:31:59;;;;;;;2.03;1.90;;;23.40;73.00;;;;;;4918483;29;20448;-77
2021/06/02 06:34:30;;;;;;;6.30;2.00;;;23.90;69.60;;;;;;4918622;29;20454;-76
2021/06/02 06:36:58;;;;;;;3.80;1.97;;;24.00;67.80;;;;;;4917932;29;20455;-76
2021/06/02 06:39:55;;;;;;;2.57;1.87;;;24.50;67.50;;;;;;4918811;29;20412;-76
2021/06/02 06:42:30;;;;;;;2.97;2.20;;;25.20;66.40;;;;;;4914800;29;20491;-75
2021/06/02 06:44:58;;;;;;;5.57;2.47;;;24.70;66.30;;;;;;4911656;29;20427;-76
2021/06/02 06:47:25;;;;;;;6.50;2.50;;;25.20;66.00;;;;;;4916013;29;20498;-76
2021/06/02 06:49:56;;;;;;;2.50;2.30;;;25.70;64.10;;;;;;4916865;29;20988;-76
2021/06/02 06:52:24;;;;;;;2.30;2.07;;;25.00;65.20;;;;;;4915468;29;20796;-76
2021/06/02 06:54:52;;;;;;;3.97;2.00;;;25.10;65.00;;;;;;4920496;29;20428;-80
2021/06/02 06:57:19;;;;;;;2.23;2.03;;;24.90;66.20;;;;;;4922713;29;20468;-81
2021/06/02 06:59:46;;;;;;;3.23;2.27;;;25.20;66.00;;;;;;4920611;29;20485;-81
2021/06/02 07:02:11;;;;;;;2.90;2.00;;;25.70;65.70;;;;;;4918031;29;20558;-78
2021/06/02 07:04:38;;;;;;;8.10;3.40;;;25.80;66.30;;;;;;4916500;29;20508;-78
2021/06/02 07:07:07;;;;;;;3.10;1.97;;;26.70;61.60;;;;;;4914297;29;20548;-78
2021/06/02 07:09:33;;;;;;;2.67;2.07;;;26.40;62.10;;;;;;4914504;29;20909;-78
2021/06/02 07:11:59;;;;;;;2.53;1.50;;;26.60;61.20;;;;;;4917840;29;20451;-78
2021/06/02 07:14:29;;;;;;;3.53;1.90;;;27.00;63.60;;;;;;4915347;29;20829;-78
2021/06/02 07:16:57;;;;;;;4.57;2.20;;;27.50;58.80;;;;;;4915720;29;20447;-79
2021/06/02 07:19:23;;;;;;;3.87;2.50;;;27.50;58.90;;;;;;4917430;29;20459;-78
2021/06/02 07:21:50;;;;;;;9.80;2.00;;;27.70;58.80;;;;;;4915063;29;20458;-78
2021/06/02 07:24:20;;;;;;;3.77;2.30;;;27.00;60.50;;;;;;4914614;29;20796;-78
2021/06/02 07:26:46;;;;;;;3.87;1.83;;;26.90;60.00;;;;;;4914025;29;20523;-78
2021/06/02 07:29:13;;;;;;;5.17;2.33;;;27.20;59.20;;;;;;4916816;29;20440;-80
2021/06/02 07:31:38;;;;;;;2.37;1.70;;;27.40;58.00;;;;;;4916565;29;20783;-78
2021/06/02 07:34:05;;;;;;;2.27;1.83;;;27.00;58.00;;;;;;4915756;29;20438;-79
2021/06/02 07:36:31;;;;;;;3.03;1.90;;;26.60;57.60;;;;;;4916318;29;20191;-79
2021/06/02 07:38:56;;;;;;;2.30;1.77;;;27.20;59.00;;;;;;4915295;29;20454;-79
2021/06/02 07:41:22;;;;;;;2.23;1.70;;;27.00;58.40;;;;;;4946610;29;20248;-79
2021/06/02 07:43:47;;;;;;;6.27;1.90;;;26.30;58.60;;;;;;4915886;29;20184;-79
2021/06/02 07:46:13;;;;;;;2.70;1.50;;;26.50;58.10;;;;;;4909787;29;20533;-79
2021/06/02 07:48:38;;;;;;;6.50;2.10;;;26.10;58.00;;;;;;4916787;29;20252;-79
2021/06/02 07:51:04;;;;;;;2.80;2.47;;;26.10;59.00;;;;;;4915656;29;20222;-78
2021/06/02 07:53:30;;;;;;;2.60;2.37;;;26.00;57.50;;;;;;4917106;29;20644;-78
2021/06/02 07:55:56;;;;;;;4.33;2.13;;;;;;;;;;4915517;29;20172;-79
2021/06/02 07:58:21;;;;;;;3.37;2.03;;;;;;;;;;4914167;29;20900;-80
2021/06/02 08:00:47;;;;;;;3.40;2.30;;;25.10;60.60;;;;;;4913059;29;20498;-80
2021/06/02 08:03:12;;;;;;;3.90;1.93;;;25.30;59.80;;;;;;4915304;29;20192;-79
2021/06/02 08:05:38;;;;;;;3.30;2.10;;;25.90;59.30;;;;;;4919150;29;20197;-80
2021/06/02 08:08:03;;;;;;;3.90;2.20;;;25.70;58.90;;;;;;4916301;29;20290;-80
2021/06/02 08:10:29;;;;;;;2.13;1.77;;;27.10;57.20;;;;;;4917994;29;20648;-79
2021/06/02 08:12:55;;;;;;;4.47;2.00;;;26.50;55.80;;;;;;4917398;29;20247;-80
2021/06/02 08:15:21;;;;;;;5.17;2.00;;;;;;;;;;4916717;29;20188;-80
2021/06/02 08:17:47;;;;;;;3.77;1.80;;;26.40;57.50;;;;;;4916537;29;20221;-80
2021/06/02 08:20:14;;;;;;;6.10;2.10;;;25.80;58.10;;;;;;4918104;29;20423;-79
2021/06/02 08:22:40;;;;;;;2.23;1.90;;;25.90;57.90;;;;;;4916470;29;20456;-80
2021/06/02 08:25:09;;;;;;;3.30;2.40;;;25.30;58.80;;;;;;4924177;29;20416;-78
2021/06/02 08:27:35;;;;;;;5.03;2.37;;;25.90;58.90;;;;;;4933455;29;20191;-78
2021/06/02 08:30:01;;;;;;;5.20;2.40;;;26.20;57.90;;;;;;4929466;29;20419;-80
2021/06/02 08:32:26;;;;;;;4.57;2.80;;;25.60;57.10;;;;;;4917580;29;20204;-79
2021/06/02 08:34:53;;;;;;;6.23;2.47;;;24.90;59.70;;;;;;4918276;29;20955;-80
2021/06/02 08:37:19;;;;;;;2.60;2.00;;;;;;;;;;4921466;29;20196;-80
2021/06/02 08:39:45;;;;;;;6.63;2.00;;;24.40;61.60;;;;;;4930270;29;20628;-80
2021/06/02 08:42:11;;;;;;;6.47;2.20;;;24.60;59.70;;;;;;4924997;29;20453;-81
2021/06/02 08:44:36;;;;;;;2.47;1.77;;;24.40;60.30;;;;;;4920570;29;20241;-80
2021/06/02 08:47:03;;;;;;;6.83;2.10;;;24.70;61.80;;;;;;4898506;29;20430;-79
2021/06/02 08:49:29;;;;;;;5.07;2.80;;;25.80;60.40;;;;;;4914328;29;20188;-80
2021/06/02 08:51:56;;;;;;;6.20;2.27;;;25.20;58.60;;;;;;4916955;29;20436;-80
2021/06/02 08:54:22;;;;;;;2.60;1.90;;;24.60;59.90;;;;;;4946380;29;20641;-79
2021/06/02 08:56:48;;;;;;;4.50;2.10;;;25.10;61.80;;;;;;4915508;29;20457;-80
2021/06/02 08:59:16;;;;;;;2.70;2.17;;;25.10;58.70;;;;;;4916576;29;20833;-79
2021/06/02 09:01:42;;;;;;;2.50;1.77;;;;;;;;;;4917540;29;20597;-80
2021/06/02 09:04:09;;;;;;;2.60;1.93;;;24.40;60.10;;;;;;4916634;29;20532;-80
2021/06/02 09:06:48;;;;;;;2.63;2.00;;;24.90;61.30;;;;;;4916368;29;20601;-80
2021/06/02 09:09:15;;;;;;;3.40;1.63;;;25.40;57.50;;;;;;4917019;29;20483;-82
2021/06/02 09:11:46;;;;;;;4.13;1.87;;;25.20;57.90;;;;;;4916736;29;20448;-80
2021/06/02 09:14:45;;;;;;;6.07;2.30;;;24.90;57.70;;;;;;4917703;29;20921;-80
2021/06/02 09:17:14;;;;;;;3.60;2.13;;;24.50;58.00;;;;;;4874272;29;20875;-80
2021/06/02 09:19:41;;;;;;;3.23;1.90;;;23.80;60.10;;;;;;4916656;29;20424;-80
2021/06/02 09:22:09;;;;;;;5.10;1.60;;;23.90;62.00;;;;;;4915649;29;20460;-80
2021/06/02 09:25:01;;;;;;;2.17;1.70;;;24.30;57.60;;;;;;4915907;29;20424;-78
2021/06/02 09:27:51;;;;;;;2.93;2.17;;;24.80;59.10;;;;;;4915329;29;21028;-79
2021/06/02 09:30:22;;;;;;;2.03;1.83;;;24.20;58.50;;;;;;4915507;29;20527;-78
2021/06/02 09:32:51;;;;;;;2.00;1.80;;;24.10;61.20;;;;;;4914289;29;20447;-78
2021/06/02 09:35:17;;;;;;;2.30;1.80;;;23.90;61.00;;;;;;4915736;29;20409;-78
2021/06/02 09:38:22;;;;;;;2.30;1.57;;;24.30;59.60;;;;;;4914675;29;20875;-78
2021/06/02 09:40:56;;;;;;;2.60;1.63;;;24.00;59.60;;;;;;4904261;29;20203;-78
2021/06/02 09:43:32;;;;;;;4.10;1.60;;;24.50;60.40;;;;;;4909792;29;20411;-78
2021/06/02 09:46:09;;;;;;;2.00;1.80;;;25.00;62.00;;;;;;4916607;29;20495;-78
2021/06/02 09:48:47;;;;;;;6.77;1.70;;;24.80;59.00;;;;;;4907668;29;20448;-78
2021/06/02 09:51:36;;;;;;;4.63;1.70;;;24.30;60.40;;;;;;4919083;29;20439;-78
2021/06/02 09:54:05;;;;;;;5.50;1.80;;;24.30;61.40;;;;;;4919430;29;20403;-78
2021/06/02 09:56:51;;;;;;;3.63;1.63;;;23.90;59.40;;;;;;4914105;29;20433;-78
2021/06/02 09:59:18;;;;;;;4.53;2.37;;;24.00;60.80;;;;;;4912196;29;20431;-76
2021/06/02 10:01:52;;;;;;;2.77;1.30;;;23.90;60.70;;;;;;4916900;29;20481;-77
2021/06/02 10:04:18;;;;;;;3.50;2.00;;;23.70;61.40;;;;;;4918686;29;20992;-77
2021/06/02 10:06:45;;;;;;;4.50;1.80;;;24.10;61.60;;;;;;4917241;29;20430;-77
2021/06/02 10:09:10;;;;;;;2.87;1.73;;;24.30;59.70;;;;;;4918606;29;20432;-76
2021/06/02 10:11:37;;;;;;;3.53;1.90;;;24.50;62.60;;;;;;4918518;29;21034;-77
2021/06/02 10:14:10;;;;;;;3.23;1.77;;;24.40;61.00;;;;;;4918581;29;20184;-77
2021/06/02 10:16:40;;;;;;;2.60;1.83;;;24.00;61.40;;;;;;4918486;29;20487;-77
2021/06/02 10:19:06;;;;;;;5.20;2.27;;;23.70;61.80;;;;;;4918890;29;20420;-78
2021/06/02 10:21:46;;;;;;;7.50;2.23;;;24.00;62.50;;;;;;4918364;29;20804;-78
2021/06/02 10:24:12;;;;;;;9.27;2.03;;;24.60;60.10;;;;;;4918486;29;20619;-79
2021/06/02 10:26:40;;;;;;;2.73;1.70;;;23.60;60.90;;;;;;4918054;29;20416;-77
2021/06/02 10:29:07;;;;;;;3.30;1.80;;;23.30;59.40;;;;;;4918646;29;20183;-77
2021/06/02 10:31:34;;;;;;;3.37;1.67;;;23.40;59.00;;;;;;4918837;29;20466;-78
2021/06/02 10:34:00;;;;;;;3.93;1.93;;;23.10;60.30;;;;;;4918324;29;20420;-77
2021/06/02 10:36:29;;;;;;;2.07;1.40;;;23.30;59.70;;;;;;4916604;29;20439;-77
2021/06/02 10:38:58;;;;;;;9.73;2.13;;;23.10;62.40;;;;;;4918355;29;20204;-78
2021/06/02 10:41:35;;;;;;;2.07;1.43;;;23.10;60.50;;;;;;4917898;29;20444;-77
2021/06/02 10:44:07;;;;;;;6.50;1.97;;;23.00;60.20;;;;;;4916626;29;20420;-77
2021/06/02 10:46:35;;;;;;;1.90;1.53;;;22.90;62.10;;;;;;4917994;29;20475;-76
2021/06/02 10:49:02;;;;;;;3.33;1.57;;;22.80;60.40;;;;;;4918738;29;20413;-76
2021/06/02 10:51:35;;;;;;;2.17;1.87;;;22.90;62.40;;;;;;4918792;29;20444;-74
2021/06/02 10:54:11;;;;;;;5.60;2.23;;;23.10;61.70;;;;;;4916983;29;20424;-76
2021/06/02 10:56:41;;;;;;;4.00;1.80;;;23.00;62.40;;;;;;4917554;29;20546;-76
2021/06/02 10:59:35;;;;;;;4.10;1.87;;;22.70;63.70;;;;;;4918196;29;20553;-77
2021/06/02 11:02:15;;;;;;;2.40;1.60;;;23.20;61.30;;;;;;4899226;29;20496;-76
2021/06/02 11:05:12;;;;;;;4.23;2.03;;;23.60;62.10;;;;;;4899241;29;20408;-77
2021/06/02 11:07:50;;;;;;;3.43;2.10;;;23.30;62.80;;;;;;4896641;29;20428;-76
2021/06/02 11:10:16;;;;;;;8.27;2.03;;;23.10;62.50;;;;;;4917355;29;20412;-76
2021/06/02 11:12:44;;;;;;;5.03;1.87;;;23.40;62.20;;;;;;4917683;29;20416;-76
2021/06/02 11:15:21;;;;;;;5.97;2.13;;;;;;;;;;4917748;29;20199;-76
2021/06/02 11:18:09;;;;;;;3.10;1.93;;;23.80;63.80;;;;;;4917151;29;20835;-76
2021/06/02 11:20:44;;;;;;;3.57;1.60;;;24.00;61.70;;;;;;4916318;29;20987;-76
2021/06/02 11:23:11;;;;;;;2.17;1.53;;;23.70;62.10;;;;;;4917463;29;20933;-77
2021/06/02 11:25:38;;;;;;;2.10;1.90;;;23.70;60.70;;;;;;4917376;29;20469;-77
2021/06/02 11:28:04;;;;;;;3.60;1.70;;;23.70;60.30;;;;;;4917076;29;20448;-77
2021/06/02 11:30:30;;;;;;;6.30;1.63;;;23.50;62.40;;;;;;4917170;29;20412;-77
2021/06/02 11:32:58;;;;;;;1.90;1.70;;;23.70;62.60;;;;;;4917360;29;20787;-77
2021/06/02 11:35:53;;;;;;;4.40;1.83;;;23.60;62.50;;;;;;4917375;29;20187;-77
2021/06/02 11:38:20;;;;;;;5.03;2.20;;;23.70;62.00;;;;;;4916595;29;20463;-76
2021/06/02 11:40:45;;;;;;;1.77;1.67;;;23.80;60.30;;;;;;4917226;29;20499;-76
2021/06/02 11:43:11;;;;;;;3.43;1.97;;;23.90;61.40;;;;;;4917253;29;20416;-76
2021/06/02 11:45:42;;;;;;;8.73;4.63;;;24.40;60.40;;;;;;4917236;29;20670;-77
2021/06/02 11:48:12;;;;;;;2.50;2.00;;;24.20;61.90;;;;;;4917881;29;20169;-76
2021/06/02 11:50:38;;;;;;;4.87;1.77;;;24.40;61.30;;;;;;4947089;29;20471;-76
2021/06/02 11:53:04;;;;;;;4.53;1.60;;;24.90;60.40;;;;;;4916380;29;20564;-76
2021/06/02 11:55:32;;;;;;;4.40;1.80;;;24.90;60.50;;;;;;4916440;29;20503;-75
2021/06/02 11:57:58;;;;;;;3.13;1.90;;;;;;;;;;4915696;29;20728;-74
2021/06/02 12:00:26;;;;;;;5.20;1.93;;;24.50;60.20;;;;;;4914545;29;20424;-74
2021/06/02 12:02:59;;;;;;;4.43;2.03;;;;;;;;;;4914242;29;20840;-74
2021/06/02 12:05:26;;;;;;;2.40;1.73;;;;;;;;;;4915769;29;20905;-75
2021/06/02 12:08:16;;;;;;;17.57;2.40;;;24.00;61.60;;;;;;4916058;29;20424;-74
2021/06/02 12:10:48;;;;;;;6.20;1.83;;;24.10;64.10;;;;;;4916091;29;20901;-74
2021/06/02 12:13:17;;;;;;;4.20;2.20;;;24.40;62.70;;;;;;4916586;29;20436;-77
2021/06/02 12:15:43;;;;;;;7.10;2.20;;;;;;;;;;4916914;29;20424;-77
2021/06/02 12:18:09;;;;;;;5.10;2.20;;;24.50;61.20;;;;;;4915498;29;20979;-77
2021/06/02 12:20:36;;;;;;;12.93;1.90;;;24.20;60.60;;;;;;4916223;29;20201;-78
2021/06/02 12:23:03;;;;;;;10.63;2.07;;;24.00;61.70;;;;;;4915014;29;20430;-78
2021/06/02 12:25:30;;;;;;;3.37;1.70;;;24.20;64.30;;;;;;4916191;29;20408;-77
2021/06/02 12:27:59;;;;;;;3.47;1.97;;;24.60;60.40;;;;;;4915445;29;20916;-78
2021/06/02 12:30:36;;;;;;;4.00;2.20;;;24.70;60.70;;;;;;4916460;29;20784;-78
2021/06/02 12:33:10;;;;;;;9.50;2.40;;;25.00;61.10;;;;;;4916373;29;20415;-78
2021/06/02 12:35:46;;;;;;;9.43;1.90;;;25.10;61.60;;;;;;4916385;29;20900;-78
2021/06/02 12:38:18;;;;;;;4.77;2.13;;;25.20;61.40;;;;;;4914666;29;20834;-78
2021/06/02 12:40:53;;;;;;;3.37;2.43;;;25.20;62.90;;;;;;4915986;29;20488;-78
2021/06/02 12:43:22;;;;;;;2.57;2.00;;;24.90;63.10;;;;;;4916110;29;20455;-78
2021/06/02 12:45:51;;;;;;;6.03;2.80;;;24.90;63.10;;;;;;4916831;29;20420;-78
2021/06/02 12:48:29;;;;;;;4.00;2.47;;;25.40;63.10;;;;;;4915816;29;20527;-78
2021/06/02 12:50:55;;;;;;;6.43;2.50;;;24.60;61.80;;;;;;4915778;29;20507;-78
2021/06/02 12:53:20;;;;;;;9.20;2.13;;;24.10;65.10;;;;;;4916403;29;20933;-78
2021/06/02 12:55:50;;;;;;;6.03;3.00;;;23.60;65.70;;;;;;4917778;29;20188;-78
2021/06/02 12:58:20;;;;;;;3.73;2.80;;;23.60;65.90;;;;;;4914600;29;20204;-78
2021/06/02 13:00:48;;;;;;;3.00;2.30;;;23.70;65.80;;;;;;4915811;29;20800;-78
2021/06/02 13:03:16;;;;;;;8.60;4.40;;;23.50;65.60;;;;;;4915908;29;20432;-78
2021/06/02 13:05:45;;;;;;;8.17;2.40;;;23.50;66.30;;;;;;4916008;29;20810;-78
2021/06/02 13:08:12;;;;;;;4.40;2.03;;;23.70;65.60;;;;;;4916313;29;20424;-78
2021/06/02 13:10:40;;;;;;;5.70;2.60;;;23.90;66.40;;;;;;4916025;29;20440;-78
2021/06/02 13:13:07;;;;;;;9.57;2.73;;;23.90;66.70;;;;;;4917602;29;20443;-78
2021/06/02 13:15:36;;;;;;;3.73;2.43;;;24.00;63.90;;;;;;4915921;29;20905;-79
2021/06/02 13:18:04;;;;;;;4.37;2.77;;;23.90;65.00;;;;;;4915467;29;20460;-79
2021/06/02 13:20:39;;;;;;;3.60;1.83;;;24.10;65.00;;;;;;4915755;29;20955;-79
2021/06/02 13:23:18;;;;;;;5.33;2.70;;;23.60;65.40;;;;;;4919971;29;20401;-79
2021/06/02 13:25:58;;;;;;;5.00;3.00;;;23.80;67.20;;;;;;4950397;29;20969;-78
2021/06/02 13:28:24;;;;;;;2.83;2.10;;;23.70;65.60;;;;;;4949806;29;20428;-78
2021/06/02 13:30:53;;;;;;;3.70;2.30;;;23.50;66.40;;;;;;4919914;29;20519;-78
2021/06/02 13:33:19;;;;;;;5.77;2.70;;;23.70;67.00;;;;;;4919666;29;20470;-78
2021/06/02 13:35:44;;;;;;;3.53;2.50;;;24.00;66.70;;;;;;4919758;29;20408;-78
2021/06/02 13:38:10;;;;;;;4.90;2.40;;;;;;;;;;4919087;29;20748;-78
2021/06/02 13:40:39;;;;;;;4.90;2.07;;;23.90;64.90;;;;;;4919703;29;20232;-78
2021/06/02 13:43:18;;;;;;;6.17;2.50;;;23.60;66.70;;;;;;4919271;29;20508;-77
2021/06/02 13:45:54;;;;;;;4.23;2.50;;;23.50;67.00;;;;;;4919269;29;20496;-77
2021/06/02 13:48:31;;;;;;;4.60;2.13;;;23.50;67.40;;;;;;4918507;29;20435;-77
2021/06/02 13:51:24;;;;;;;10.27;2.47;;;23.90;67.40;;;;;;4919834;29;20928;-77
2021/06/02 13:54:21;;;;;;;4.00;2.20;;;23.80;65.70;;;;;;4918767;29;20494;-77
2021/06/02 13:57:09;;;;;;;4.83;2.30;;;24.40;65.40;;;;;;4918423;29;20460;-77
2021/06/02 13:59:40;;;;;;;4.20;2.50;;;24.30;64.60;;;;;;4919014;29;20424;-76
2021/06/02 14:02:11;;;;;;;4.77;2.13;;;24.80;63.20;;;;;;4918547;29;20960;-76
2021/06/02 14:04:38;;;;;;;3.90;2.13;;;24.60;62.50;;;;;;4918667;29;20510;-77
2021/06/02 14:07:06;;;;;;;3.43;2.20;;;24.10;63.90;;;;;;4918562;29;20434;-76
2021/06/02 14:09:32;;;;;;;3.07;2.23;;;24.20;64.20;;;;;;4918915;29;20408;-76
2021/06/02 14:11:58;;;;;;;7.70;2.60;;;23.90;65.70;;;;;;4918631;29;20782;-76
2021/06/02 14:14:24;;;;;;;2.43;2.07;;;23.60;64.30;;;;;;4918538;29;20184;-76
2021/06/02 14:16:50;;;;;;;5.73;2.20;;;23.70;64.40;;;;;;4917689;29;20200;-77
2021/06/02 14:19:17;;;;;;;7.27;2.60;;;23.40;64.90;;;;;;4917990;29;20188;-77
2021/06/02 14:21:43;;;;;;;5.13;2.40;;;23.40;65.80;;;;;;4918519;29;20432;-76
2021/06/02 14:24:10;;;;;;;6.17;2.50;;;23.60;64.50;;;;;;4918725;29;20416;-76
2021/06/02 14:26:37;;;;;;;8.27;2.00;;;23.70;64.60;;;;;;4918024;29;20404;-74
2021/06/02 14:29:04;;;;;;;2.40;2.20;;;23.80;63.70;;;;;;4918704;29;20432;-74
2021/06/02 14:31:31;;;;;;;3.47;2.03;;;23.70;64.10;;;;;;4918298;29;20964;-75
2021/06/02 14:33:57;;;;;;;4.13;2.10;;;;;;;;;;4918269;29;20424;-75
2021/06/02 14:36:22;;;;;;;3.50;1.87;;;23.70;64.40;;;;;;4917572;29;20474;-76
2021/06/02 14:38:48;;;;;;;3.63;2.00;;;23.80;64.30;;;;;;4917953;29;20212;-75
2021/06/02 14:41:13;;;;;;;5.77;2.70;;;23.60;64.30;;;;;;4917057;29;20621;-76
2021/06/02 14:43:39;;;;;;;2.60;2.23;;;23.60;64.40;;;;;;4918143;29;20228;-77
2021/06/02 14:46:05;;;;;;;4.67;2.50;;;23.70;63.20;;;;;;4918261;29;20184;-80
2021/06/02 14:48:32;;;;;;;5.97;2.40;;;23.50;64.50;;;;;;4919880;29;20200;-78
2021/06/02 14:51:00;;;;;;;5.77;1.90;;;23.70;65.60;;;;;;4916738;29;20438;-77
2021/06/02 14:53:26;;;;;;;2.97;2.10;;;23.80;63.80;;;;;;4917569;29;20509;-76
2021/06/02 14:55:51;;;;;;;6.03;2.10;;;23.90;64.30;;;;;;4917879;29;20432;-78
2021/06/02 14:58:17;;;;;;;4.10;2.13;;;23.60;63.50;;;;;;4918812;29;20531;-77
2021/06/02 15:00:43;;;;;;;5.40;2.10;;;;;;;;;;4919169;29;20635;-77
2021/06/02 15:03:08;;;;;;;3.53;1.90;;;23.20;63.60;;;;;;4919986;29;20197;-77
2021/06/02 15:05:34;;;;;;;4.53;2.00;;;;;;;;;;4919595;29;20185;-74
2021/06/02 15:08:01;;;;;;;3.30;2.33;;;23.80;64.30;;;;;;4918908;29;20675;-74
2021/06/02 15:10:28;;;;;;;5.43;2.13;;;23.90;64.00;;;;;;4918816;29;20428;-74
2021/06/02 15:12:56;;;;;;;4.93;1.93;;;23.90;62.70;;;;;;4920004;29;20439;-78
2021/06/02 15:15:22;;;;;;;18.03;2.60;;;23.80;63.10;;;;;;4919422;29;21154;-80
2021/06/02 15:17:48;;;;;;;5.20;2.03;;;23.70;63.30;;;;;;4918479;29;20468;-75
2021/06/02 15:20:16;;;;;;;6.00;2.57;;;23.60;63.20;;;;;;4919584;29;20435;-75
2021/06/02 15:22:42;;;;;;;8.13;2.53;;;23.80;64.40;;;;;;4919895;29;20186;-75
2021/06/02 15:25:08;;;;;;;7.50;2.30;;;23.70;62.40;;;;;;4917957;29;20425;-75
2021/06/02 15:27:34;;;;;;;4.80;2.00;;;23.50;64.30;;;;;;4916672;29;20793;-75
2021/06/02 15:30:01;;;;;;;4.07;1.90;;;23.70;63.50;;;;;;4918987;29;20526;-74
2021/06/02 15:32:29;;;;;;;4.93;2.20;;;23.80;63.10;;;;;;4918257;29;20684;-75
2021/06/02 15:34:57;;;;;;;9.10;2.40;;;23.90;62.90;;;;;;4917594;29;20980;-72
2021/06/02 15:37:27;;;;;;;4.40;2.53;;;23.60;63.70;;;;;;4917656;29;20695;-74
2021/06/02 15:39:53;;;;;;;12.90;2.40;;;23.50;64.30;;;;;;4918492;29;20412;-73
2021/06/02 15:42:21;;;;;;;4.50;2.37;;;23.60;63.00;;;;;;4918454;29;20444;-73
2021/06/02 15:44:48;;;;;;;3.53;1.60;;;23.50;63.40;;;;;;4918219;29;20424;-73
2021/06/02 15:47:14;;;;;;;6.70;2.40;;;23.60;66.30;;;;;;4918309;29;20483;-73
2021/06/02 15:49:40;;;;;;;5.37;2.20;;;23.80;63.40;;;;;;4917967;29;20973;-73
2021/06/02 15:52:08;;;;;;;4.10;1.93;;;23.90;63.70;;;;;;4917312;29;20692;-72
2021/06/02 15:54:36;;;;;;;2.40;1.97;;;24.20;64.00;;;;;;4916000;29;20188;-72
2021/06/02 15:57:06;;;;;;;2.77;2.00;;;24.20;63.20;;;;;;4917477;29;20547;-72
2021/06/02 15:59:33;;;;;;;2.60;1.87;;;24.00;62.70;;;;;;4917717;29;20417;-79
2021/06/02 16:02:00;;;;;;;5.73;2.17;;;;;;;;;;4918999;29;20499;-74
2021/06/02 16:04:26;;;;;;;2.67;1.80;;;23.90;63.00;;;;;;4917849;29;20424;-74
2021/06/02 16:06:52;;;;;;;4.07;1.87;;;;;;;;;;4916509;29;20496;-75
2021/06/02 16:09:17;;;;;;;2.47;2.10;;;23.50;63.60;;;;;;4918536;29;20256;-74
2021/06/02 16:11:43;;;;;;;2.40;1.60;;;23.40;63.50;;;;;;4917577;29;20291;-75
2021/06/02 16:14:12;;;;;;;3.30;2.20;;;23.40;63.50;;;;;;4918548;29;20275;-75
2021/06/02 16:16:38;;;;;;;6.13;2.30;;;23.30;63.90;;;;;;4916462;29;20775;-74
2021/06/02 16:19:04;;;;;;;3.97;1.80;;;23.30;62.90;;;;;;4917953;29;20475;-76
2021/06/02 16:21:30;;;;;;;6.10;2.07;;;23.40;63.30;;;;;;4918384;29;20263;-74
2021/06/02 16:23:56;;;;;;;2.20;2.00;;;;;;;;;;4920900;29;20933;-75
2021/06/02 16:26:25;;;;;;;1.90;1.70;;;23.20;61.50;;;;;;4922089;29;20433;-74
2021/06/02 16:28:51;;;;;;;2.40;1.47;;;23.10;63.50;;;;;;4917985;29;20424;-75
2021/06/02 16:31:18;;;;;;;4.70;2.13;;;22.80;64.30;;;;;;4917717;29;21028;-75
2021/06/02 16:33:46;;;;;;;4.13;2.03;;;22.90;64.80;;;;;;4917544;29;20432;-78
2021/06/02 16:36:13;;;;;;;3.00;1.97;;;22.90;64.30;;;;;;4917391;29;20464;-78
2021/06/02 16:38:39;;;;;;;3.80;2.10;;;22.80;65.50;;;;;;4913454;29;20473;-78
2021/06/02 16:41:05;;;;;;;4.23;2.17;;;22.80;65.70;;;;;;4913451;29;20448;-77
2021/06/02 16:43:31;;;;;;;4.40;2.03;;;22.80;65.60;;;;;;4918356;29;20519;-78
2021/06/02 16:45:57;;;;;;;4.80;2.40;;;22.80;65.40;;;;;;4917693;29;20727;-78
2021/06/02 16:48:23;;;;;;;15.80;2.00;;;22.60;65.50;;;;;;4918645;29;20436;-77
2021/06/02 16:50:49;;;;;;;2.43;2.00;;;22.60;65.90;;;;;;4919790;29;20412;-78
2021/06/02 16:53:16;;;;;;;2.40;1.80;;;22.60;65.10;;;;;;4918454;29;20192;-78
2021/06/02 16:55:46;;;;;;;2.50;1.90;;;22.50;65.20;;;;;;4923062;29;20440;-82
2021/06/02 16:58:19;;;;;;;6.13;2.13;;;22.40;65.90;;;;;;4922006;23;20494;-79
2021/06/02 17:00:50;;;;;;;2.80;1.70;;;22.40;66.10;;;;;;4880992;29;20580;-80
2021/06/02 17:03:16;;;;;;;6.60;2.47;;;22.40;64.80;;;;;;4896418;29;20802;-79
2021/06/02 17:05:42;;;;;;;4.00;1.90;;;22.40;65.20;;;;;;4881673;29;20510;-80
2021/06/02 17:08:09;;;;;;;3.87;2.00;;;22.30;65.70;;;;;;4881227;29;20276;-79
2021/06/02 17:10:35;;;;;;;5.53;1.77;;;22.20;66.70;;;;;;4911948;29;20269;-80
2021/06/02 17:13:01;;;;;;;2.00;1.70;;;22.20;65.40;;;;;;4881899;29;20946;-80
2021/06/02 17:15:26;;;;;;;3.00;2.00;;;22.10;66.40;;;;;;4896324;29;20189;-80
2021/06/02 17:17:52;;;;;;;2.20;1.97;;;;;;;;;;4881136;29;20504;-80